Elton, Pennsylvania
Current Conditions -  °F | °C
As of 4:54 AM on Sunday 26 Oct 2014 (Local Time) from KJST Reporting Station
Clear Clear  
Wind Chill: 42°   Ceiling: Unl
Heat Index: 47°   Visibility: 10mi
Dew Point: 29°   Wind: 12mph
Humidity: 50%   Direction: 290°WNW
Pressure: 29.76"   Gusts: 24mph
Location:  40.28°N, 78.8°W
Report Text: KJST 260854Z AUTO 29010G21KT 10SM CLR 08/M02 A2976 RMK AO2 SLP077 T00831017 51005
Loading
Personal Weather Stations






























Interactive Weather Map
Tropical Storm Tracking
New forecast layout! Learn more

10-Day Weather Forecast

Advertisements
Track Severe Weather on mobile